sensor_id;sensor_type;location;lat;lon;timestamp;temperature;humidity
10722;DHT22;5412;59.450;18.124;2023-03-15T00:00:41;2.30;99.90
10722;DHT22;5412;59.450;18.124;2023-03-15T00:03:08;2.20;99.90
10722;DHT22;5412;59.450;18.124;2023-03-15T00:05:34;2.20;99.90
10722;DHT22;5412;59.450;18.124;2023-03-15T00:08:00;2.20;99.90
10722;DHT22;5412;59.450;18.124;2023-03-15T00:10:27;2.20;99.90
10722;DHT22;5412;59.450;18.124;2023-03-15T00:12:52;2.30;99.90
10722;DHT22;5412;59.450;18.124;2023-03-15T00:15:18;2.30;99.90
10722;DHT22;5412;59.450;18.124;2023-03-15T00:17:44;2.30;99.90
10722;DHT22;5412;59.450;18.124;2023-03-15T00:20:11;2.10;99.90
10722;DHT22;5412;59.450;18.124;2023-03-15T00:22:39;2.00;99.90
10722;DHT22;5412;59.450;18.124;2023-03-15T00:25:06;2.00;99.90
10722;DHT22;5412;59.450;18.124;2023-03-15T00:27:32;2.00;99.90
10722;DHT22;5412;59.450;18.124;2023-03-15T00:29:57;1.90;99.90
10722;DHT22;5412;59.450;18.124;2023-03-15T00:32:23;1.90;99.90
10722;DHT22;5412;59.450;18.124;2023-03-15T00:34:49;1.80;99.90
10722;DHT22;5412;59.450;18.124;2023-03-15T00:37:19;1.80;99.90
10722;DHT22;5412;59.450;18.124;2023-03-15T00:39:47;1.80;99.90
10722;DHT22;5412;59.450;18.124;2023-03-15T00:42:13;1.80;99.90
10722;DHT22;5412;59.450;18.124;2023-03-15T00:44:41;1.60;99.90
10722;DHT22;5412;59.450;18.124;2023-03-15T00:47:09;1.60;99.90
10722;DHT22;5412;59.450;18.124;2023-03-15T00:49:34;1.60;99.90
10722;DHT22;5412;59.450;18.124;2023-03-15T00:52:00;1.60;99.90
10722;DHT22;5412;59.450;18.124;2023-03-15T00:54:26;1.70;99.90
10722;DHT22;5412;59.450;18.124;2023-03-15T00:56:52;1.70;99.90
10722;DHT22;5412;59.450;18.124;2023-03-15T00:59:17;1.70;99.90
10722;DHT22;5412;59.450;18.124;2023-03-15T01:01:43;1.40;99.90
10722;DHT22;5412;59.450;18.124;2023-03-15T01:04:10;1.60;99.90
10722;DHT22;5412;59.450;18.124;2023-03-15T01:06:38;1.60;99.90
10722;DHT22;5412;59.450;18.124;2023-03-15T01:09:07;1.50;99.90
10722;DHT22;5412;59.450;18.124;2023-03-15T01:11:34;1.40;99.90
10722;DHT22;5412;59.450;18.124;2023-03-15T01:13:59;1.40;99.90
10722;DHT22;5412;59.450;18.124;2023-03-15T01:16:27;1.40;99.90
10722;DHT22;5412;59.450;18.124;2023-03-15T01:18:54;1.40;99.90
10722;DHT22;5412;59.450;18.124;2023-03-15T01:21:21;1.30;99.90
10722;DHT22;5412;59.450;18.124;2023-03-15T01:23:47;1.30;99.90
10722;DHT22;5412;59.450;18.124;2023-03-15T01:26:15;1.30;99.90
10722;DHT22;5412;59.450;18.124;2023-03-15T01:28:41;1.20;99.90
10722;DHT22;5412;59.450;18.124;2023-03-15T01:31:16;1.10;99.90
10722;DHT22;5412;59.450;18.124;2023-03-15T01:33:42;1.10;99.90
10722;DHT22;5412;59.450;18.124;2023-03-15T01:36:09;1.00;99.90
10722;DHT22;5412;59.450;18.124;2023-03-15T01:38:35;1.00;99.90
10722;DHT22;5412;59.450;18.124;2023-03-15T01:41:01;0.90;99.90
10722;DHT22;5412;59.450;18.124;2023-03-15T01:43:28;0.80;99.90
10722;DHT22;5412;59.450;18.124;2023-03-15T01:48:41;0.90;99.90
10722;DHT22;5412;59.450;18.124;2023-03-15T01:59:25;0.90;99.90
10722;DHT22;5412;59.450;18.124;2023-03-15T02:01:53;0.90;99.90
10722;DHT22;5412;59.450;18.124;2023-03-15T02:04:56;1.00;99.90
10722;DHT22;5412;59.450;18.124;2023-03-15T02:07:17;1.90;99.90
10722;DHT22;5412;59.450;18.124;2023-03-15T02:12:32;0.90;99.90
10722;DHT22;5412;59.450;18.124;2023-03-15T02:15:00;0.90;99.90
10722;DHT22;5412;59.450;18.124;2023-03-15T02:17:42;0.90;99.90
10722;DHT22;5412;59.450;18.124;2023-03-15T02:23:01;0.80;99.90
10722;DHT22;5412;59.450;18.124;2023-03-15T02:26:41;0.60;99.90
10722;DHT22;5412;59.450;18.124;2023-03-15T02:28:35;0.70;99.90
10722;DHT22;5412;59.450;18.124;2023-03-15T02:31:01;0.70;99.90
10722;DHT22;5412;59.450;18.124;2023-03-15T02:33:33;0.70;99.90
10722;DHT22;5412;59.450;18.124;2023-03-15T02:36:28;0.40;99.90
10722;DHT22;5412;59.450;18.124;2023-03-15T02:38:55;0.60;99.90
10722;DHT22;5412;59.450;18.124;2023-03-15T02:43:53;0.60;99.90
10722;DHT22;5412;59.450;18.124;2023-03-15T02:46:20;0.50;99.90
10722;DHT22;5412;59.450;18.124;2023-03-15T02:48:47;0.40;99.90
10722;DHT22;5412;59.450;18.124;2023-03-15T02:51:22;0.40;99.90
10722;DHT22;5412;59.450;18.124;2023-03-15T02:53:48;0.40;99.90
10722;DHT22;5412;59.450;18.124;2023-03-15T02:56:15;0.40;99.90
10722;DHT22;5412;59.450;18.124;2023-03-15T02:58:41;0.30;99.90
10722;DHT22;5412;59.450;18.124;2023-03-15T03:01:14;0.20;99.90
10722;DHT22;5412;59.450;18.124;2023-03-15T03:03:41;0.20;99.90
10722;DHT22;5412;59.450;18.124;2023-03-15T03:06:07;0.20;99.90
10722;DHT22;5412;59.450;18.124;2023-03-15T03:08:33;0.30;99.90
10722;DHT22;5412;59.450;18.124;2023-03-15T03:10:59;0.20;99.90
10722;DHT22;5412;59.450;18.124;2023-03-15T03:13:24;0.30;99.90
10722;DHT22;5412;59.450;18.124;2023-03-15T03:15:50;0.20;99.90
10722;DHT22;5412;59.450;18.124;2023-03-15T03:18:24;0.10;99.90
10722;DHT22;5412;59.450;18.124;2023-03-15T03:20:50;0.20;99.90
10722;DHT22;5412;59.450;18.124;2023-03-15T03:23:16;0.20;99.90
10722;DHT22;5412;59.450;18.124;2023-03-15T03:25:42;0.20;99.90
10722;DHT22;5412;59.450;18.124;2023-03-15T03:28:10;0.10;99.90
10722;DHT22;5412;59.450;18.124;2023-03-15T03:30:35;0.10;99.90
10722;DHT22;5412;59.450;18.124;2023-03-15T03:33:01;0.10;99.90
10722;DHT22;5412;59.450;18.124;2023-03-15T03:35:27;0.00;99.90
10722;DHT22;5412;59.450;18.124;2023-03-15T03:37:53;0.10;99.90
10722;DHT22;5412;59.450;18.124;2023-03-15T03:40:19;0.10;99.90
10722;DHT22;5412;59.450;18.124;2023-03-15T03:42:44;0.10;99.90
10722;DHT22;5412;59.450;18.124;2023-03-15T03:45:10;-0.10;99.90
10722;DHT22;5412;59.450;18.124;2023-03-15T03:47:36;-0.20;99.90
10722;DHT22;5412;59.450;18.124;2023-03-15T03:50:02;-0.20;99.90
10722;DHT22;5412;59.450;18.124;2023-03-15T03:52:28;-0.20;99.90
10722;DHT22;5412;59.450;18.124;2023-03-15T03:54:53;-0.10;99.90
10722;DHT22;5412;59.450;18.124;2023-03-15T03:57:19;-0.20;99.90
10722;DHT22;5412;59.450;18.124;2023-03-15T03:59:45;-0.10;99.90
10722;DHT22;5412;59.450;18.124;2023-03-15T04:02:11;-0.10;99.90
10722;DHT22;5412;59.450;18.124;2023-03-15T04:04:37;-0.20;99.90
10722;DHT22;5412;59.450;18.124;2023-03-15T04:07:05;-0.10;99.90
10722;DHT22;5412;59.450;18.124;2023-03-15T04:09:31;-0.20;99.90
10722;DHT22;5412;59.450;18.124;2023-03-15T04:12:02;-0.30;99.90
10722;DHT22;5412;59.450;18.124;2023-03-15T04:14:29;-0.30;99.90
10722;DHT22;5412;59.450;18.124;2023-03-15T04:16:55;-0.20;99.90
10722;DHT22;5412;59.450;18.124;2023-03-15T04:19:21;-0.30;99.90
10722;DHT22;5412;59.450;18.124;2023-03-15T04:21:47;-0.30;99.90
10722;DHT22;5412;59.450;18.124;2023-03-15T04:24:13;-0.20;99.90
10722;DHT22;5412;59.450;18.124;2023-03-15T04:26:39;-0.10;99.90
10722;DHT22;5412;59.450;18.124;2023-03-15T04:29:07;-0.20;99.90
10722;DHT22;5412;59.450;18.124;2023-03-15T04:31:33;-0.10;99.90
10722;DHT22;5412;59.450;18.124;2023-03-15T04:34:03;-0.20;99.90
10722;DHT22;5412;59.450;18.124;2023-03-15T04:36:29;-0.20;99.90
10722;DHT22;5412;59.450;18.124;2023-03-15T04:38:55;-0.20;99.90
10722;DHT22;5412;59.450;18.124;2023-03-15T04:41:28;-0.20;99.90
10722;DHT22;5412;59.450;18.124;2023-03-15T04:43:54;-0.20;99.90
10722;DHT22;5412;59.450;18.124;2023-03-15T04:46:20;-0.20;99.90
10722;DHT22;5412;59.450;18.124;2023-03-15T04:48:45;-0.10;99.90
10722;DHT22;5412;59.450;18.124;2023-03-15T04:51:11;-0.20;99.90
10722;DHT22;5412;59.450;18.124;2023-03-15T04:53:37;-0.30;99.90
10722;DHT22;5412;59.450;18.124;2023-03-15T04:56:05;-0.40;99.90
10722;DHT22;5412;59.450;18.124;2023-03-15T04:58:31;-0.30;99.90
10722;DHT22;5412;59.450;18.124;2023-03-15T05:00:57;-0.30;99.90
10722;DHT22;5412;59.450;18.124;2023-03-15T05:03:22;-0.30;99.90
10722;DHT22;5412;59.450;18.124;2023-03-15T05:05:48;-0.10;99.90
10722;DHT22;5412;59.450;18.124;2023-03-15T05:08:14;-0.20;99.90
10722;DHT22;5412;59.450;18.124;2023-03-15T05:10:39;-0.20;99.90
10722;DHT22;5412;59.450;18.124;2023-03-15T05:13:05;-0.20;99.90
10722;DHT22;5412;59.450;18.124;2023-03-15T05:15:31;-0.20;99.90
10722;DHT22;5412;59.450;18.124;2023-03-15T05:17:57;-0.20;99.90
10722;DHT22;5412;59.450;18.124;2023-03-15T05:20:23;-0.40;99.90
10722;DHT22;5412;59.450;18.124;2023-03-15T05:22:50;-0.50;99.90
10722;DHT22;5412;59.450;18.124;2023-03-15T05:25:18;-0.40;99.90
10722;DHT22;5412;59.450;18.124;2023-03-15T05:27:43;-0.40;99.90
10722;DHT22;5412;59.450;18.124;2023-03-15T05:30:11;-0.30;99.90
10722;DHT22;5412;59.450;18.124;2023-03-15T05:32:39;-0.30;99.90
10722;DHT22;5412;59.450;18.124;2023-03-15T05:35:10;-0.30;99.90
10722;DHT22;5412;59.450;18.124;2023-03-15T05:37:36;-0.20;99.90
10722;DHT22;5412;59.450;18.124;2023-03-15T05:40:02;-0.10;99.90
10722;DHT22;5412;59.450;18.124;2023-03-15T05:42:32;0.00;99.90
10722;DHT22;5412;59.450;18.124;2023-03-15T05:44:58;0.00;99.90
10722;DHT22;5412;59.450;18.124;2023-03-15T05:47:24;-0.10;99.90
10722;DHT22;5412;59.450;18.124;2023-03-15T05:49:50;-0.10;99.90
10722;DHT22;5412;59.450;18.124;2023-03-15T05:52:16;-0.10;99.90
10722;DHT22;5412;59.450;18.124;2023-03-15T05:54:42;0.00;99.90
10722;DHT22;5412;59.450;18.124;2023-03-15T05:57:08;-0.10;99.90
10722;DHT22;5412;59.450;18.124;2023-03-15T05:59:34;-0.10;99.90
10722;DHT22;5412;59.450;18.124;2023-03-15T06:02:00;-0.10;99.90
10722;DHT22;5412;59.450;18.124;2023-03-15T06:04:26;0.00;99.90
10722;DHT22;5412;59.450;18.124;2023-03-15T06:06:52;0.10;99.90
10722;DHT22;5412;59.450;18.124;2023-03-15T06:09:18;0.10;99.90
10722;DHT22;5412;59.450;18.124;2023-03-15T06:11:44;-0.10;99.90
10722;DHT22;5412;59.450;18.124;2023-03-15T06:14:09;0.00;99.90
10722;DHT22;5412;59.450;18.124;2023-03-15T06:16:35;-0.10;99.90
10722;DHT22;5412;59.450;18.124;2023-03-15T06:19:01;0.00;99.90
10722;DHT22;5412;59.450;18.124;2023-03-15T06:21:27;0.10;99.90
10722;DHT22;5412;59.450;18.124;2023-03-15T06:23:53;0.10;99.90
10722;DHT22;5412;59.450;18.124;2023-03-15T06:26:19;0.20;99.90
10722;DHT22;5412;59.450;18.124;2023-03-15T06:28:45;0.30;99.90
10722;DHT22;5412;59.450;18.124;2023-03-15T06:31:12;0.40;99.90
10722;DHT22;5412;59.450;18.124;2023-03-15T06:33:38;0.40;99.90
10722;DHT22;5412;59.450;18.124;2023-03-15T06:36:05;0.40;99.90
10722;DHT22;5412;59.450;18.124;2023-03-15T06:38:31;0.50;99.90
10722;DHT22;5412;59.450;18.124;2023-03-15T06:40:57;0.30;99.90
10722;DHT22;5412;59.450;18.124;2023-03-15T06:43:25;0.40;99.90
10722;DHT22;5412;59.450;18.124;2023-03-15T06:45:51;0.50;99.90
10722;DHT22;5412;59.450;18.124;2023-03-15T06:48:18;0.70;99.90
10722;DHT22;5412;59.450;18.124;2023-03-15T06:50:44;0.80;99.90
10722;DHT22;5412;59.450;18.124;2023-03-15T06:53:10;0.90;99.90
10722;DHT22;5412;59.450;18.124;2023-03-15T06:55:36;0.70;99.90
10722;DHT22;5412;59.450;18.124;2023-03-15T06:58:01;0.70;99.90
10722;DHT22;5412;59.450;18.124;2023-03-15T07:00:27;0.60;99.90
10722;DHT22;5412;59.450;18.124;2023-03-15T07:02:53;0.70;99.90
10722;DHT22;5412;59.450;18.124;2023-03-15T07:05:18;0.80;99.90
10722;DHT22;5412;59.450;18.124;2023-03-15T07:07:44;1.00;99.90
10722;DHT22;5412;59.450;18.124;2023-03-15T07:10:10;1.10;99.90
10722;DHT22;5412;59.450;18.124;2023-03-15T07:12:36;1.10;99.90
10722;DHT22;5412;59.450;18.124;2023-03-15T07:15:02;1.10;99.90
10722;DHT22;5412;59.450;18.124;2023-03-15T07:17:28;0.90;99.90
10722;DHT22;5412;59.450;18.124;2023-03-15T07:19:54;1.10;99.90
10722;DHT22;5412;59.450;18.124;2023-03-15T07:22:19;1.20;99.90
10722;DHT22;5412;59.450;18.124;2023-03-15T07:24:47;1.20;99.90
10722;DHT22;5412;59.450;18.124;2023-03-15T07:27:13;1.20;99.90
10722;DHT22;5412;59.450;18.124;2023-03-15T07:29:39;1.40;99.90
10722;DHT22;5412;59.450;18.124;2023-03-15T07:32:06;1.30;99.90
10722;DHT22;5412;59.450;18.124;2023-03-15T07:34:31;1.50;99.90
10722;DHT22;5412;59.450;18.124;2023-03-15T07:36:57;1.60;99.90
10722;DHT22;5412;59.450;18.124;2023-03-15T07:39:23;1.40;99.90
10722;DHT22;5412;59.450;18.124;2023-03-15T07:41:53;1.40;99.90
10722;DHT22;5412;59.450;18.124;2023-03-15T07:44:19;1.50;99.90
10722;DHT22;5412;59.450;18.124;2023-03-15T07:46:45;1.70;99.90
10722;DHT22;5412;59.450;18.124;2023-03-15T07:49:11;1.60;99.90
10722;DHT22;5412;59.450;18.124;2023-03-15T07:51:37;1.40;99.90
10722;DHT22;5412;59.450;18.124;2023-03-15T07:54:04;1.50;99.90
10722;DHT22;5412;59.450;18.124;2023-03-15T07:56:31;1.70;99.90
10722;DHT22;5412;59.450;18.124;2023-03-15T07:58:56;1.80;99.90
10722;DHT22;5412;59.450;18.124;2023-03-15T08:01:22;2.00;99.90
10722;DHT22;5412;59.450;18.124;2023-03-15T08:03:48;1.90;99.90
10722;DHT22;5412;59.450;18.124;2023-03-15T08:06:14;1.80;99.90
10722;DHT22;5412;59.450;18.124;2023-03-15T08:08:39;1.90;99.90
10722;DHT22;5412;59.450;18.124;2023-03-15T08:11:05;2.10;99.90
10722;DHT22;5412;59.450;18.124;2023-03-15T08:13:31;2.30;99.90
10722;DHT22;5412;59.450;18.124;2023-03-15T08:15:58;2.40;99.90
10722;DHT22;5412;59.450;18.124;2023-03-15T08:18:24;2.20;99.90
10722;DHT22;5412;59.450;18.124;2023-03-15T08:20:49;2.30;99.90
10722;DHT22;5412;59.450;18.124;2023-03-15T08:23:15;2.30;99.90
10722;DHT22;5412;59.450;18.124;2023-03-15T08:25:43;2.00;99.90
10722;DHT22;5412;59.450;18.124;2023-03-15T08:28:09;1.90;99.90
10722;DHT22;5412;59.450;18.124;2023-03-15T08:30:35;2.00;99.90
10722;DHT22;5412;59.450;18.124;2023-03-15T08:33:01;1.90;99.90
10722;DHT22;5412;59.450;18.124;2023-03-15T08:35:28;1.90;99.90
10722;DHT22;5412;59.450;18.124;2023-03-15T08:37:55;2.00;99.90
10722;DHT22;5412;59.450;18.124;2023-03-15T08:40:21;2.10;99.90
10722;DHT22;5412;59.450;18.124;2023-03-15T08:42:53;2.10;99.90
10722;DHT22;5412;59.450;18.124;2023-03-15T08:45:19;2.30;99.90
10722;DHT22;5412;59.450;18.124;2023-03-15T08:47:45;2.40;99.90
10722;DHT22;5412;59.450;18.124;2023-03-15T08:50:12;2.50;99.90
10722;DHT22;5412;59.450;18.124;2023-03-15T08:52:39;2.60;99.90
10722;DHT22;5412;59.450;18.124;2023-03-15T08:55:05;2.60;99.90
10722;DHT22;5412;59.450;18.124;2023-03-15T08:57:31;2.70;99.90
10722;DHT22;5412;59.450;18.124;2023-03-15T09:00:01;2.60;99.90
10722;DHT22;5412;59.450;18.124;2023-03-15T09:02:31;2.70;99.90
10722;DHT22;5412;59.450;18.124;2023-03-15T09:04:57;2.60;99.90
10722;DHT22;5412;59.450;18.124;2023-03-15T09:07:23;2.70;99.90
10722;DHT22;5412;59.450;18.124;2023-03-15T09:09:48;2.70;99.90
10722;DHT22;5412;59.450;18.124;2023-03-15T09:12:15;2.80;99.90
10722;DHT22;5412;59.450;18.124;2023-03-15T09:14:41;2.70;99.90
10722;DHT22;5412;59.450;18.124;2023-03-15T09:17:07;2.80;99.90
10722;DHT22;5412;59.450;18.124;2023-03-15T09:19:33;2.90;99.90
10722;DHT22;5412;59.450;18.124;2023-03-15T09:21:59;3.10;99.90
10722;DHT22;5412;59.450;18.124;2023-03-15T09:24:24;3.20;99.90
10722;DHT22;5412;59.450;18.124;2023-03-15T09:26:50;3.20;99.90
10722;DHT22;5412;59.450;18.124;2023-03-15T09:29:16;3.20;99.90
10722;DHT22;5412;59.450;18.124;2023-03-15T09:31:42;3.40;99.90
10722;DHT22;5412;59.450;18.124;2023-03-15T09:34:07;3.50;99.90
10722;DHT22;5412;59.450;18.124;2023-03-15T09:36:33;3.40;99.90
10722;DHT22;5412;59.450;18.124;2023-03-15T09:39:00;3.50;99.90
10722;DHT22;5412;59.450;18.124;2023-03-15T09:41:48;3.40;99.90
10722;DHT22;5412;59.450;18.124;2023-03-15T09:44:31;3.20;99.90
10722;DHT22;5412;59.450;18.124;2023-03-15T09:52:55;3.60;99.90
10722;DHT22;5412;59.450;18.124;2023-03-15T09:55:25;3.50;99.90
10722;DHT22;5412;59.450;18.124;2023-03-15T10:00:44;4.00;99.90
10722;DHT22;5412;59.450;18.124;2023-03-15T10:06:04;3.80;99.90
10722;DHT22;5412;59.450;18.124;2023-03-15T10:08:31;3.80;99.90
10722;DHT22;5412;59.450;18.124;2023-03-15T10:13:42;3.80;99.90
10722;DHT22;5412;59.450;18.124;2023-03-15T10:16:14;3.90;99.90
10722;DHT22;5412;59.450;18.124;2023-03-15T10:22:02;4.00;99.90
10722;DHT22;5412;59.450;18.124;2023-03-15T10:24:58;4.00;99.90
10722;DHT22;5412;59.450;18.124;2023-03-15T10:27:51;3.90;99.90
10722;DHT22;5412;59.450;18.124;2023-03-15T10:30:27;3.70;99.90
10722;DHT22;5412;59.450;18.124;2023-03-15T10:33:02;3.80;99.90
10722;DHT22;5412;59.450;18.124;2023-03-15T10:35:30;3.80;99.90
10722;DHT22;5412;59.450;18.124;2023-03-15T10:37:57;3.70;99.90
10722;DHT22;5412;59.450;18.124;2023-03-15T10:40:45;3.60;99.90
10722;DHT22;5412;59.450;18.124;2023-03-15T10:43:15;3.80;99.90
10722;DHT22;5412;59.450;18.124;2023-03-15T10:45:41;3.90;99.90
10722;DHT22;5412;59.450;18.124;2023-03-15T10:48:07;3.90;99.90
10722;DHT22;5412;59.450;18.124;2023-03-15T10:50:37;3.90;99.90
10722;DHT22;5412;59.450;18.124;2023-03-15T10:53:09;4.00;99.90
10722;DHT22;5412;59.450;18.124;2023-03-15T10:55:41;4.20;99.90
10722;DHT22;5412;59.450;18.124;2023-03-15T10:58:29;4.80;99.90
10722;DHT22;5412;59.450;18.124;2023-03-15T11:01:04;4.10;99.90
10722;DHT22;5412;59.450;18.124;2023-03-15T11:03:35;4.10;99.90
10722;DHT22;5412;59.450;18.124;2023-03-15T11:06:06;4.00;99.90
10722;DHT22;5412;59.450;18.124;2023-03-15T11:08:42;4.10;99.90
10722;DHT22;5412;59.450;18.124;2023-03-15T11:11:08;4.10;99.90
10722;DHT22;5412;59.450;18.124;2023-03-15T11:13:36;4.20;99.90
10722;DHT22;5412;59.450;18.124;2023-03-15T11:21:12;4.50;99.90
10722;DHT22;5412;59.450;18.124;2023-03-15T11:23:45;4.40;99.90
10722;DHT22;5412;59.450;18.124;2023-03-15T11:26:22;4.40;99.90
10722;DHT22;5412;59.450;18.124;2023-03-15T11:28:51;4.40;99.90
10722;DHT22;5412;59.450;18.124;2023-03-15T11:31:26;4.30;99.90
10722;DHT22;5412;59.450;18.124;2023-03-15T11:36:51;4.40;99.90
10722;DHT22;5412;59.450;18.124;2023-03-15T11:39:28;4.50;99.90
10722;DHT22;5412;59.450;18.124;2023-03-15T11:41:58;4.60;99.90
10722;DHT22;5412;59.450;18.124;2023-03-15T11:44:32;4.50;99.90
10722;DHT22;5412;59.450;18.124;2023-03-15T11:52:12;4.90;99.90
10722;DHT22;5412;59.450;18.124;2023-03-15T11:54:40;4.80;99.90
10722;DHT22;5412;59.450;18.124;2023-03-15T11:57:42;4.80;99.90
10722;DHT22;5412;59.450;18.124;2023-03-15T12:02:48;5.10;99.90
10722;DHT22;5412;59.450;18.124;2023-03-15T12:05:41;5.20;99.90
10722;DHT22;5412;59.450;18.124;2023-03-15T12:10:47;4.80;99.90
10722;DHT22;5412;59.450;18.124;2023-03-15T12:13:26;5.00;99.90
10722;DHT22;5412;59.450;18.124;2023-03-15T12:15:52;5.00;99.90
10722;DHT22;5412;59.450;18.124;2023-03-15T12:18:40;5.10;99.90
10722;DHT22;5412;59.450;18.124;2023-03-15T12:24:03;5.20;99.90
10722;DHT22;5412;59.450;18.124;2023-03-15T12:26:41;5.30;99.90
10722;DHT22;5412;59.450;18.124;2023-03-15T12:31:50;5.10;99.90
10722;DHT22;5412;59.450;18.124;2023-03-15T12:39:47;5.00;99.90
10722;DHT22;5412;59.450;18.124;2023-03-15T12:56:32;5.10;99.90
10722;DHT22;5412;59.450;18.124;2023-03-15T12:59:15;5.40;99.90
10722;DHT22;5412;59.450;18.124;2023-03-15T13:01:42;5.50;99.90
10722;DHT22;5412;59.450;18.124;2023-03-15T13:04:09;5.70;99.90
10722;DHT22;5412;59.450;18.124;2023-03-15T13:14:58;5.50;99.90
10722;DHT22;5412;59.450;18.124;2023-03-15T13:17:44;5.60;99.90
10722;DHT22;5412;59.450;18.124;2023-03-15T13:20:50;5.50;99.90
10722;DHT22;5412;59.450;18.124;2023-03-15T13:23:27;5.30;99.90
10722;DHT22;5412;59.450;18.124;2023-03-15T13:28:45;5.10;99.90
10722;DHT22;5412;59.450;18.124;2023-03-15T13:31:16;5.20;99.90
10722;DHT22;5412;59.450;18.124;2023-03-15T13:33:52;5.60;99.90
10722;DHT22;5412;59.450;18.124;2023-03-15T13:36:26;5.80;99.90
10722;DHT22;5412;59.450;18.124;2023-03-15T13:38:55;6.30;99.90
10722;DHT22;5412;59.450;18.124;2023-03-15T13:41:29;7.00;99.90
10722;DHT22;5412;59.450;18.124;2023-03-15T13:43:57;7.50;99.10
10722;DHT22;5412;59.450;18.124;2023-03-15T13:46:26;8.20;96.70
10722;DHT22;5412;59.450;18.124;2023-03-15T13:48:55;8.90;95.60
10722;DHT22;5412;59.450;18.124;2023-03-15T13:54:02;9.30;91.50
10722;DHT22;5412;59.450;18.124;2023-03-15T13:56:52;9.10;90.40
10722;DHT22;5412;59.450;18.124;2023-03-15T13:59:21;9.70;90.20
10722;DHT22;5412;59.450;18.124;2023-03-15T14:01:49;9.50;86.90
10722;DHT22;5412;59.450;18.124;2023-03-15T14:04:18;10.20;84.40
10722;DHT22;5412;59.450;18.124;2023-03-15T14:06:45;10.20;82.60
10722;DHT22;5412;59.450;18.124;2023-03-15T14:09:22;10.70;79.30
10722;DHT22;5412;59.450;18.124;2023-03-15T14:12:05;11.00;74.80
10722;DHT22;5412;59.450;18.124;2023-03-15T14:14:35;11.40;74.40
10722;DHT22;5412;59.450;18.124;2023-03-15T14:17:07;11.30;72.20
10722;DHT22;5412;59.450;18.124;2023-03-15T14:19:54;11.80;71.80
10722;DHT22;5412;59.450;18.124;2023-03-15T14:22:21;11.90;69.80
10722;DHT22;5412;59.450;18.124;2023-03-15T14:24:51;12.00;69.10
10722;DHT22;5412;59.450;18.124;2023-03-15T14:27:24;12.70;66.20
10722;DHT22;5412;59.450;18.124;2023-03-15T14:29:56;13.00;65.90
10722;DHT22;5412;59.450;18.124;2023-03-15T14:32:33;11.60;65.80
10722;DHT22;5412;59.450;18.124;2023-03-15T14:35:22;11.30;66.30
10722;DHT22;5412;59.450;18.124;2023-03-15T14:38:20;11.50;67.50
10722;DHT22;5412;59.450;18.124;2023-03-15T14:40:45;11.10;65.50
10722;DHT22;5412;59.450;18.124;2023-03-15T14:43:11;10.60;68.40
10722;DHT22;5412;59.450;18.124;2023-03-15T14:45:40;10.70;68.90
10722;DHT22;5412;59.450;18.124;2023-03-15T14:50:43;9.00;74.50
10722;DHT22;5412;59.450;18.124;2023-03-15T14:53:13;9.60;74.20
10722;DHT22;5412;59.450;18.124;2023-03-15T14:55:40;10.70;71.80
10722;DHT22;5412;59.450;18.124;2023-03-15T14:58:17;12.00;68.50
10722;DHT22;5412;59.450;18.124;2023-03-15T15:00:45;13.20;65.40
10722;DHT22;5412;59.450;18.124;2023-03-15T15:03:24;14.10;62.70
10722;DHT22;5412;59.450;18.124;2023-03-15T15:05:53;14.60;59.90
10722;DHT22;5412;59.450;18.124;2023-03-15T15:08:20;15.40;57.50
10722;DHT22;5412;59.450;18.124;2023-03-15T15:10:51;15.20;55.60
10722;DHT22;5412;59.450;18.124;2023-03-15T15:13:25;15.40;54.30
10722;DHT22;5412;59.450;18.124;2023-03-15T15:15:52;14.60;53.50
10722;DHT22;5412;59.450;18.124;2023-03-15T15:18:19;14.50;53.70
10722;DHT22;5412;59.450;18.124;2023-03-15T15:20:45;12.50;54.80
10722;DHT22;5412;59.450;18.124;2023-03-15T15:23:17;10.90;57.00
10722;DHT22;5412;59.450;18.124;2023-03-15T15:25:44;10.30;59.50
10722;DHT22;5412;59.450;18.124;2023-03-15T15:28:10;9.20;61.80
10722;DHT22;5412;59.450;18.124;2023-03-15T15:30:36;8.20;65.60
10722;DHT22;5412;59.450;18.124;2023-03-15T15:33:02;7.60;67.70
10722;DHT22;5412;59.450;18.124;2023-03-15T15:35:28;6.90;70.40
10722;DHT22;5412;59.450;18.124;2023-03-15T15:37:54;6.50;72.50
10722;DHT22;5412;59.450;18.124;2023-03-15T15:40:25;6.40;75.10
10722;DHT22;5412;59.450;18.124;2023-03-15T15:42:52;6.10;76.70
10722;DHT22;5412;59.450;18.124;2023-03-15T15:45:18;6.10;80.00
10722;DHT22;5412;59.450;18.124;2023-03-15T15:47:44;5.80;80.70
10722;DHT22;5412;59.450;18.124;2023-03-15T15:50:14;5.80;83.10
10722;DHT22;5412;59.450;18.124;2023-03-15T15:52:43;5.80;85.00
10722;DHT22;5412;59.450;18.124;2023-03-15T15:55:14;5.40;85.30
10722;DHT22;5412;59.450;18.124;2023-03-15T15:57:42;5.50;88.10
10722;DHT22;5412;59.450;18.124;2023-03-15T16:00:20;5.40;89.10
10722;DHT22;5412;59.450;18.124;2023-03-15T16:02:49;5.20;90.50
10722;DHT22;5412;59.450;18.124;2023-03-15T16:05:17;4.00;90.40
10722;DHT22;5412;59.450;18.124;2023-03-15T16:07:43;5.50;91.10
10722;DHT22;5412;59.450;18.124;2023-03-15T16:12:43;6.00;89.60
10722;DHT22;5412;59.450;18.124;2023-03-15T16:15:12;5.80;90.10
10722;DHT22;5412;59.450;18.124;2023-03-15T16:17:38;5.60;90.70
10722;DHT22;5412;59.450;18.124;2023-03-15T16:20:05;5.50;91.70
10722;DHT22;5412;59.450;18.124;2023-03-15T16:22:32;5.30;91.80
10722;DHT22;5412;59.450;18.124;2023-03-15T16:24:58;5.00;92.50
10722;DHT22;5412;59.450;18.124;2023-03-15T16:27:26;5.10;92.90
10722;DHT22;5412;59.450;18.124;2023-03-15T16:29:54;5.00;93.40
10722;DHT22;5412;59.450;18.124;2023-03-15T16:32:22;4.90;94.30
10722;DHT22;5412;59.450;18.124;2023-03-15T16:34:50;5.00;95.00
10722;DHT22;5412;59.450;18.124;2023-03-15T16:37:23;4.70;94.80
10722;DHT22;5412;59.450;18.124;2023-03-15T16:39:50;4.80;95.20
10722;DHT22;5412;59.450;18.124;2023-03-15T16:42:18;4.80;95.70
10722;DHT22;5412;59.450;18.124;2023-03-15T16:44:44;4.80;96.40
10722;DHT22;5412;59.450;18.124;2023-03-15T16:47:10;4.70;96.70
10722;DHT22;5412;59.450;18.124;2023-03-15T16:49:36;4.70;96.70
10722;DHT22;5412;59.450;18.124;2023-03-15T16:52:04;4.50;97.10
10722;DHT22;5412;59.450;18.124;2023-03-15T16:54:32;4.60;97.80
10722;DHT22;5412;59.450;18.124;2023-03-15T16:56:58;4.50;98.10
10722;DHT22;5412;59.450;18.124;2023-03-15T16:59:26;4.50;99.30
10722;DHT22;5412;59.450;18.124;2023-03-15T17:01:53;4.40;98.90
10722;DHT22;5412;59.450;18.124;2023-03-15T17:04:19;4.30;99.70
10722;DHT22;5412;59.450;18.124;2023-03-15T17:06:47;4.30;99.90
10722;DHT22;5412;59.450;18.124;2023-03-15T17:09:18;4.30;99.90
10722;DHT22;5412;59.450;18.124;2023-03-15T17:11:47;4.20;99.80
10722;DHT22;5412;59.450;18.124;2023-03-15T17:14:23;4.20;99.90
10722;DHT22;5412;59.450;18.124;2023-03-15T17:16:51;4.20;99.90
10722;DHT22;5412;59.450;18.124;2023-03-15T17:19:16;4.20;99.90
10722;DHT22;5412;59.450;18.124;2023-03-15T17:21:43;4.10;99.90
10722;DHT22;5412;59.450;18.124;2023-03-15T17:24:09;4.20;99.90
10722;DHT22;5412;59.450;18.124;2023-03-15T17:26:36;4.20;99.90
10722;DHT22;5412;59.450;18.124;2023-03-15T17:29:03;4.10;99.90
10722;DHT22;5412;59.450;18.124;2023-03-15T17:31:29;4.10;99.90